Airfield :
LOGIN :

Register | Disclaimer

   EN    FR    IT 

 










Legend :    VFR   Marginal VFR   IFR   Intensive IFR   Very Intensive IFR
Visi :
Ceiling :
>= 8 km
>= 3000ft
5 to 8 km
1000 to 3000 ft
1500m to 5 km
500 to 1000 ft
800 to 1500m
200 to 500 ft
< 800m
< 200 ft
Symbols :   Thunderstorms  Fog  Heavy snow  Heavy precipitations  Wind > 20 kt
SIGMETs :     Misc.  Thunderstorms  Icing  Turbulence  Mountain Waves  Volcanic Ashes






- Airport Elevation : 616 ft
- IATA code : PUF


LFBP - Pau

CURRENT METAR :
  • 101830Z AUTO 03003KT 9999 FEW060/// SCT070/// BKN092/// ///CB 18/10 Q1009 TEMPO 4000 SHRA

EXPIRED METARs :
  • 101800Z AUTO VRB01KT 9999 BKN060 BKN086 19/09 Q1009 TEMPO VRB12G22KT 1500 -TSRA BKN040CB
  • 101730Z AUTO 30004KT 9999 BKN062/// BKN074/// BKN086/// ///TCU 19/09 Q1009 TEMPO 1500 -TSRA BKN040CB
  • 101700Z AUTO 31006KT 9999 FEW050/// BKN086/// ///TCU 20/08 Q1009 TEMPO 1500 TSRA BKN040CB
  • 101630Z AUTO 27007KT 9999 FEW050/// BKN078/// BKN090/// ///CB 19/09 Q1009 TEMPO 1500 TSRA
  • 101600Z AUTO 24004KT 220V280 9999 FEW070/// BKN086/// BKN110/// ///TCU 20/08 Q1009 TEMPO 1500 TSRA BKN040CB

TAF TAF LFBP
Valid from the 10 at 18:00 until the 11 at 18:00 UTC


101700Z 1018/1118 30005KT CAVOK
TEMPO 1018/1021 4000 SHRA FEW045CB BKN055TCU
PROB40
TEMPO 1018/1020 VRB12G22KT 1500 -TSRA BKN040CB
PROB40 1023/1105 4000 -RA
PROB30 1102/1105 0900 FG VV///
FM110500 28005KT 4000 RA SCT009 BKN040
TEMPO 1105/1110 2000 RA BKN008
PROB30 1105/1107 0500 FG OVC003
BECMG 1112/1115 9999 NSW FEW014TCU BKN045
BECMG 1116/1118 SCT030



MET'MAP, your aeronautical weather chart ! - Copyright ORBIFLY December 2007 - Disclaimer

ORBIFLY MET'MAP TEAM :

Programming & Development : Alexandra Zaïnal
Concept & original design : Baudouin d'Aumeries
Assistance for programming : Marc-Olivier Méhu
Technical & hardware support : Manuel Goepfert

Contact : metmap@orbifly.com




SOURCES & CREDITS :

   NOAA